createdAt,value
2018-02-11T00:02:16.317Z,121.90
2018-02-11T00:04:43.845Z,119.70
2018-02-11T00:07:11.687Z,106.73
2018-02-11T00:09:39.503Z,120.93
2018-02-11T00:12:07.821Z,128.20
2018-02-11T00:14:35.341Z,120.00
2018-02-11T00:17:02.900Z,126.15
2018-02-11T00:19:30.420Z,114.83
2018-02-11T00:21:58.005Z,125.60
2018-02-11T00:24:25.523Z,124.13
2018-02-11T00:26:53.095Z,120.95
2018-02-11T00:29:20.608Z,124.57
2018-02-11T00:31:48.269Z,121.53
2018-02-11T00:34:15.801Z,128.73
2018-02-11T00:36:50.443Z,132.57
2018-02-11T00:39:18.746Z,129.90
2018-02-11T00:41:46.293Z,121.80
2018-02-11T00:44:13.845Z,110.70
2018-02-11T00:46:41.955Z,119.73
2018-02-11T00:49:10.119Z,127.97
2018-02-11T00:51:37.673Z,126.60
2018-02-11T00:54:05.199Z,118.27
2018-02-11T00:56:33.488Z,113.10
2018-02-11T00:59:01.040Z,113.80
2018-02-11T01:01:28.559Z,105.53
2018-02-11T01:03:56.998Z,117.87
2018-02-11T01:06:24.507Z,113.40
2018-02-11T01:08:52.040Z,115.95
2018-02-11T01:11:19.579Z,113.63
2018-02-11T01:13:47.128Z,117.43
2018-02-11T01:16:14.645Z,123.73
2018-02-11T01:18:42.951Z,115.03
2018-02-11T01:21:10.760Z,116.23
2018-02-11T01:23:39.071Z,110.43
2018-02-11T01:26:07.547Z,113.90
2018-02-11T01:28:35.091Z,108.27
2018-02-11T01:31:02.638Z,107.13
2018-02-11T01:33:30.168Z,120.97
2018-02-11T01:35:57.709Z,119.10
2018-02-11T01:38:25.240Z,107.50
2018-02-11T01:40:52.765Z,108.40
2018-02-11T01:43:21.086Z,115.70
2018-02-11T01:45:48.645Z,104.80
2018-02-11T01:48:16.168Z,106.77
2018-02-11T01:50:43.699Z,102.10
2018-02-11T01:53:11.218Z,111.83
2018-02-11T01:55:38.750Z,112.37
2018-02-11T01:58:06.296Z,107.93
2018-02-11T02:00:34.224Z,104.93
2018-02-11T02:03:01.767Z,115.30
2018-02-11T02:05:30.823Z,112.40
2018-02-11T02:07:58.358Z,103.77
2018-02-11T02:10:25.908Z,110.30
2018-02-11T02:12:53.419Z,94.37
2018-02-11T02:15:20.992Z,115.97
2018-02-11T02:17:48.523Z,105.07
2018-02-11T02:20:16.062Z,109.87
2018-02-11T02:22:43.586Z,104.33
2018-02-11T02:25:12.000Z,113.50
2018-02-11T02:27:39.585Z,106.07
2018-02-11T02:30:08.807Z,112.87
2018-02-11T02:32:36.394Z,106.87
2018-02-11T02:35:03.921Z,110.70
2018-02-11T02:37:31.465Z,121.03
2018-02-11T02:39:58.988Z,116.73
2018-02-11T02:42:26.697Z,122.97
2018-02-11T02:44:54.991Z,104.07
2018-02-11T02:47:22.541Z,106.03
2018-02-11T02:49:50.060Z,113.43
2018-02-11T02:52:17.709Z,106.43
2018-02-11T02:54:45.248Z,99.17
2018-02-11T02:57:12.799Z,113.97
2018-02-11T02:59:41.109Z,120.80
2018-02-11T03:02:10.054Z,99.40
2018-02-11T03:04:37.737Z,116.60
2018-02-11T03:07:05.322Z,103.47
2018-02-11T03:09:33.636Z,117.03
2018-02-11T03:12:01.193Z,107.45
2018-02-11T03:14:28.723Z,102.37
2018-02-11T03:16:56.244Z,112.90
2018-02-11T03:19:23.902Z,100.30
2018-02-11T03:21:51.425Z,106.97
2018-02-11T03:24:19.005Z,110.13
2018-02-11T03:26:46.582Z,114.30
2018-02-11T03:29:14.886Z,118.97
2018-02-11T03:31:42.456Z,110.23
2018-02-11T03:34:10.914Z,111.12
2018-02-11T03:36:38.429Z,107.00
2018-02-11T03:39:05.987Z,108.43
2018-02-11T03:41:33.564Z,121.33
2018-02-11T03:44:01.104Z,109.90
2018-02-11T03:46:28.639Z,111.10
2018-02-11T03:48:56.482Z,106.30
2018-02-11T03:51:24.053Z,101.93
2018-02-11T03:53:53.133Z,103.87
2018-02-11T03:56:20.663Z,102.45
2018-02-11T03:58:48.189Z,96.97
2018-02-11T04:01:15.738Z,109.50
2018-02-11T04:03:43.299Z,108.63
2018-02-11T04:06:10.980Z,108.18
2018-02-11T04:08:39.276Z,101.60
2018-02-11T04:11:06.816Z,111.47
2018-02-11T04:13:34.353Z,104.83
2018-02-11T04:16:01.894Z,98.83
2018-02-11T04:18:29.445Z,104.53
2018-02-11T04:20:57.096Z,109.37
2018-02-11T04:23:24.617Z,112.03
2018-02-11T04:25:52.921Z,98.77
2018-02-11T04:28:20.562Z,103.15
2018-02-11T04:30:48.117Z,110.70
2018-02-11T04:33:15.662Z,97.37
2018-02-11T04:35:43.210Z,109.60
2018-02-11T04:38:11.648Z,118.32
2018-02-11T04:40:39.169Z,116.20
2018-02-11T04:43:07.483Z,102.70
2018-02-11T04:45:35.009Z,110.03
2018-02-11T04:48:02.549Z,112.63
2018-02-11T04:50:30.067Z,109.10
2018-02-11T04:52:58.376Z,110.27
2018-02-11T04:55:26.764Z,105.43
2018-02-11T04:57:54.323Z,115.43
2018-02-11T05:00:22.612Z,113.17
2018-02-11T05:02:50.145Z,103.80
2018-02-11T05:05:19.695Z,97.03
2018-02-11T05:07:47.781Z,114.30
2018-02-11T05:10:16.060Z,99.77
2018-02-11T05:12:44.380Z,111.93
2018-02-11T05:15:13.326Z,106.07
2018-02-11T05:17:41.197Z,108.50
2018-02-11T05:20:08.743Z,109.05
2018-02-11T05:22:36.277Z,105.10
2018-02-11T05:25:03.848Z,110.20
2018-02-11T05:27:33.220Z,113.53
2018-02-11T05:30:00.747Z,107.70
2018-02-11T05:32:28.383Z,101.67
2018-02-11T05:34:55.928Z,112.62
2018-02-11T05:37:23.458Z,108.47
2018-02-11T05:39:51.765Z,93.07
2018-02-11T05:42:19.510Z,116.77
2018-02-11T05:44:47.050Z,97.57
2018-02-11T05:47:14.701Z,99.27
2018-02-11T05:49:43.060Z,109.07
2018-02-11T05:52:10.618Z,97.05
2018-02-11T05:54:38.965Z,100.80
2018-02-11T05:57:06.496Z,104.60
2018-02-11T05:59:34.076Z,107.10
2018-02-11T06:02:01.620Z,98.05
2018-02-11T06:04:29.161Z,103.53
2018-02-11T06:18:31.421Z,88.33
2018-02-11T06:20:58.952Z,88.78
2018-02-11T06:23:26.482Z,95.60
2018-02-11T06:25:54.226Z,99.33
2018-02-11T06:28:21.747Z,106.60
2018-02-11T06:30:49.272Z,89.95
2018-02-11T06:33:16.829Z,95.23
2018-02-11T06:35:44.348Z,90.87
2018-02-11T06:38:12.724Z,87.80
2018-02-11T06:40:41.070Z,100.70
2018-02-11T06:43:09.507Z,99.18
2018-02-11T06:45:37.023Z,95.90
2018-02-11T06:48:04.564Z,88.07
2018-02-11T06:50:32.341Z,93.23
2018-02-11T06:52:59.881Z,79.03
2018-02-11T06:55:27.623Z,84.30
2018-02-11T06:57:55.269Z,91.77
2018-02-11T07:00:22.793Z,89.43
2018-02-11T07:02:51.223Z,79.77
2018-02-11T07:05:18.752Z,94.00
2018-02-11T07:07:46.273Z,85.50
2018-02-11T07:10:13.824Z,81.93
2018-02-11T07:12:41.370Z,78.97
2018-02-11T07:15:09.009Z,71.90
2018-02-11T07:17:36.527Z,78.73
2018-02-11T07:20:04.168Z,73.70
2018-02-11T07:22:31.696Z,74.93
2018-02-11T07:24:59.282Z,72.93
2018-02-11T07:27:26.802Z,73.80
2018-02-11T07:29:54.340Z,68.17
2018-02-11T07:32:21.864Z,63.30
2018-02-11T07:34:50.199Z,65.90
2018-02-11T07:37:17.739Z,58.90
2018-02-11T07:39:45.291Z,56.57
2018-02-11T07:42:12.819Z,56.40
2018-02-11T07:44:40.335Z,57.80
2018-02-11T07:47:07.860Z,62.10
2018-02-11T07:49:37.128Z,45.43
2018-02-11T07:52:05.441Z,51.00
2018-02-11T07:54:32.955Z,48.73
2018-02-11T07:57:00.493Z,45.13
2018-02-11T07:59:28.771Z,54.33
2018-02-11T08:01:56.337Z,43.42
2018-02-11T08:04:23.864Z,45.20
2018-02-11T08:06:51.435Z,48.60
2018-02-11T08:09:19.015Z,45.03
2018-02-11T08:11:46.620Z,41.40
2018-02-11T08:14:14.353Z,41.10
2018-02-11T08:16:42.773Z,41.90
2018-02-11T08:19:10.336Z,41.63
2018-02-11T08:21:38.636Z,40.07
2018-02-11T08:24:06.187Z,38.80
2018-02-11T08:26:33.746Z,43.58
2018-02-11T08:29:01.278Z,38.90
2018-02-11T08:31:28.810Z,42.75
2018-02-11T08:33:56.407Z,36.93
2018-02-11T08:36:24.714Z,35.13
2018-02-11T08:38:52.264Z,40.73
2018-02-11T08:41:19.791Z,38.80
2018-02-11T08:43:47.352Z,37.93
2018-02-11T08:46:14.902Z,37.93
2018-02-11T08:48:43.440Z,35.90
2018-02-11T08:51:10.961Z,41.53
2018-02-11T08:53:38.572Z,32.20
2018-02-11T08:56:06.101Z,39.57
2018-02-11T08:58:33.641Z,35.10
2018-02-11T09:01:01.189Z,35.40
2018-02-11T09:03:28.762Z,32.77
2018-02-11T09:05:56.288Z,36.07
2018-02-11T09:08:23.795Z,32.90
2018-02-11T09:10:51.333Z,31.80
2018-02-11T09:13:18.852Z,34.70
2018-02-11T09:15:46.557Z,36.17
2018-02-11T09:18:14.371Z,34.73
2018-02-11T09:20:41.999Z,33.00
2018-02-11T09:23:09.511Z,32.20
2018-02-11T09:25:37.081Z,30.80
2018-02-11T09:28:05.433Z,24.37
2018-02-11T09:30:32.984Z,31.43
2018-02-11T09:33:00.509Z,29.40
2018-02-11T09:35:28.168Z,29.07
2018-02-11T09:37:55.701Z,29.17
2018-02-11T09:40:23.333Z,29.80
2018-02-11T09:42:50.874Z,28.23
2018-02-11T09:45:18.406Z,25.00
2018-02-11T09:47:45.963Z,27.53
2018-02-11T09:50:13.492Z,23.93
2018-02-11T09:52:41.104Z,24.37
2018-02-11T09:55:09.505Z,21.87
2018-02-11T09:57:37.052Z,22.60
2018-02-11T10:00:04.620Z,22.75
2018-02-11T10:02:32.465Z,23.30
2018-02-11T10:05:00.097Z,23.57
2018-02-11T10:07:27.644Z,24.97
2018-02-11T10:09:55.293Z,34.10
2018-02-11T10:12:22.868Z,21.97
2018-02-11T10:14:50.393Z,21.30
2018-02-11T10:17:20.637Z,19.60
2018-02-11T10:19:50.553Z,24.17
2018-02-11T10:22:19.134Z,21.42
2018-02-11T10:24:46.692Z,18.73
2018-02-11T10:27:15.447Z,22.10
2018-02-11T10:29:43.134Z,20.80
2018-02-11T10:32:10.681Z,25.00
2018-02-11T10:34:38.269Z,58.10
2018-02-11T10:37:06.579Z,22.20
2018-02-11T10:39:34.125Z,22.95
2018-02-11T10:42:01.774Z,28.07
2018-02-11T10:44:29.328Z,19.92
2018-02-11T10:46:56.857Z,20.00
2018-02-11T10:49:24.464Z,29.10
2018-02-11T10:51:52.007Z,19.90
2018-02-11T10:54:20.308Z,19.80
2018-02-11T10:56:47.823Z,20.10
2018-02-11T10:59:15.344Z,24.30
2018-02-11T11:01:43.642Z,26.87
2018-02-11T11:04:12.271Z,18.80
2018-02-11T11:06:39.804Z,19.85
2018-02-11T11:09:07.477Z,22.07
2018-02-11T11:11:35.792Z,20.80
2018-02-11T11:14:03.326Z,20.50
2018-02-11T11:16:31.848Z,19.90
2018-02-11T11:19:00.138Z,27.43
2018-02-11T11:21:28.828Z,26.00
2018-02-11T11:23:56.359Z,21.63
2018-02-11T11:26:23.892Z,23.10
2018-02-11T11:28:51.421Z,21.77
2018-02-11T11:31:20.937Z,19.30
2018-02-11T11:33:48.453Z,19.23
2018-02-11T11:36:16.025Z,23.83
2018-02-11T11:38:43.552Z,26.57
2018-02-11T11:41:11.151Z,25.07
2018-02-11T11:43:38.682Z,20.53
2018-02-11T11:46:06.207Z,22.07
2018-02-11T11:48:33.864Z,19.90
2018-02-11T11:51:01.428Z,21.80
2018-02-11T11:53:28.949Z,20.70
2018-02-11T11:55:56.469Z,20.30
2018-02-11T11:58:24.198Z,18.10
2018-02-11T12:00:52.655Z,24.73
2018-02-11T12:03:21.897Z,24.50
2018-02-11T12:05:49.415Z,24.10
2018-02-11T12:08:16.949Z,22.93
2018-02-11T12:10:44.960Z,21.30
2018-02-11T12:13:12.544Z,21.62
2018-02-11T12:15:40.846Z,22.23
2018-02-11T12:18:08.414Z,19.40
2018-02-11T12:20:36.695Z,22.27
2018-02-11T12:23:05.045Z,20.37
2018-02-11T12:25:33.333Z,16.90
2018-02-11T12:28:01.647Z,18.33
2018-02-11T12:30:29.172Z,20.90
2018-02-11T12:32:56.721Z,20.80
2018-02-11T12:35:24.273Z,22.73
2018-02-11T12:37:51.793Z,22.83
2018-02-11T12:40:19.334Z,18.70
2018-02-11T12:42:46.900Z,20.90
2018-02-11T12:45:14.428Z,23.10
2018-02-11T12:47:41.961Z,25.90
2018-02-11T12:50:09.497Z,23.80
2018-02-11T12:52:37.775Z,20.08
2018-02-11T12:55:05.329Z,22.50
2018-02-11T12:57:32.861Z,24.27
2018-02-11T13:00:00.403Z,28.00
2018-02-11T13:02:27.971Z,25.67
2018-02-11T13:04:55.537Z,27.37
2018-02-11T13:07:23.097Z,24.70
2018-02-11T13:09:50.669Z,22.70
2018-02-11T13:12:18.982Z,24.40
2018-02-11T13:14:46.506Z,24.90
2018-02-11T13:17:14.050Z,24.17
2018-02-11T13:19:41.573Z,23.80
2018-02-11T13:22:10.114Z,26.17
2018-02-11T13:24:38.440Z,23.63
2018-02-11T13:27:06.000Z,24.83
2018-02-11T13:29:33.530Z,21.50
2018-02-11T13:32:01.086Z,22.67
2018-02-11T13:34:28.609Z,25.30
2018-02-11T13:36:56.150Z,21.47
2018-02-11T13:39:23.676Z,27.83
2018-02-11T13:41:51.280Z,24.90
2018-02-11T13:44:18.801Z,22.67
2018-02-11T13:46:46.432Z,29.33
2018-02-11T13:49:13.992Z,24.37
2018-02-11T13:51:41.504Z,24.40
2018-02-11T13:54:09.061Z,25.20
2018-02-11T13:56:36.583Z,22.70
2018-02-11T13:59:04.107Z,24.23
2018-02-11T14:01:32.619Z,28.40
2018-02-11T14:04:00.574Z,28.70
2018-02-11T14:06:28.528Z,23.50
2018-02-11T14:08:56.481Z,27.23
2018-02-11T14:11:25.254Z,25.60
2018-02-11T14:13:53.311Z,27.30
2018-02-11T14:16:21.878Z,26.17
2018-02-11T14:18:49.730Z,25.00
2018-02-11T14:21:17.350Z,27.57
2018-02-11T14:23:44.899Z,28.50
2018-02-11T14:26:12.691Z,26.87
2018-02-11T14:28:41.005Z,27.83
2018-02-11T14:31:08.549Z,28.87
2018-02-11T14:33:36.132Z,25.20
2018-02-11T14:36:03.652Z,26.83
2018-02-11T14:38:31.186Z,26.03
2018-02-11T14:40:58.728Z,30.53
2018-02-11T14:43:26.260Z,31.07
2018-02-11T14:45:54.578Z,29.23
2018-02-11T14:48:22.099Z,29.70
2018-02-11T14:50:49.641Z,25.67
2018-02-11T14:53:17.191Z,27.13
2018-02-11T14:55:44.736Z,26.48
2018-02-11T14:58:12.265Z,26.30
2018-02-11T15:00:39.808Z,31.20
2018-02-11T15:03:07.371Z,28.80
2018-02-11T15:05:34.917Z,28.87
2018-02-11T15:08:02.437Z,28.10
2018-02-11T15:10:29.976Z,29.02
2018-02-11T15:12:57.497Z,30.87
2018-02-11T15:15:25.145Z,29.52
2018-02-11T15:17:53.463Z,29.70
2018-02-11T15:20:20.981Z,26.73
2018-02-11T15:22:48.512Z,30.83
2018-02-11T15:25:16.104Z,29.80
2018-02-11T15:27:43.648Z,36.67
2018-02-11T15:30:11.297Z,28.10
2018-02-11T15:32:38.841Z,24.83
2018-02-11T15:35:06.352Z,27.73
2018-02-11T15:37:33.885Z,36.40
2018-02-11T15:40:01.424Z,30.83
2018-02-11T15:42:29.736Z,33.07
2018-02-11T15:44:57.268Z,28.50
2018-02-11T15:47:25.805Z,27.83
2018-02-11T15:49:53.326Z,32.00
2018-02-11T15:52:20.929Z,25.33
2018-02-11T15:54:48.457Z,31.13
2018-02-11T15:57:16.008Z,26.75
2018-02-11T15:59:43.515Z,29.20
2018-02-11T16:02:11.807Z,30.85
2018-02-11T16:04:39.367Z,28.17
2018-02-11T16:07:06.883Z,29.13
2018-02-11T16:09:34.413Z,25.00
2018-02-11T16:12:01.933Z,26.93
2018-02-11T16:14:30.298Z,24.45
2018-02-11T16:16:57.807Z,29.47
2018-02-11T16:19:27.792Z,27.60
2018-02-11T16:21:55.344Z,23.90
2018-02-11T16:24:22.873Z,30.27
2018-02-11T16:26:50.410Z,23.17
2018-02-11T16:29:18.007Z,25.47
2018-02-11T16:31:46.290Z,24.57
2018-02-11T16:34:14.937Z,28.33
2018-02-11T16:36:43.304Z,28.70
2018-02-11T16:39:10.910Z,22.13
2018-02-11T16:41:39.292Z,22.73
2018-02-11T16:44:06.855Z,23.90
2018-02-11T16:46:34.389Z,20.90
2018-02-11T16:49:01.924Z,23.07
2018-02-11T16:51:29.562Z,25.33
2018-02-11T16:53:57.374Z,21.87
2018-02-11T16:56:25.893Z,27.93
2018-02-11T16:58:53.403Z,25.45
2018-02-11T17:01:20.949Z,21.10
2018-02-11T17:03:48.475Z,19.73
2018-02-11T17:06:16.032Z,21.27
2018-02-11T17:08:43.548Z,21.53
2018-02-11T17:11:11.841Z,27.43
2018-02-11T17:13:39.361Z,23.70
2018-02-11T17:16:06.955Z,24.23
2018-02-11T17:18:34.472Z,28.70
2018-02-11T17:21:02.923Z,23.67
2018-02-11T17:23:30.453Z,21.20
2018-02-11T17:25:58.765Z,21.70
2018-02-11T17:28:26.292Z,20.27
2018-02-11T17:30:53.823Z,18.87
2018-02-11T17:33:21.372Z,17.55
2018-02-11T17:35:48.941Z,23.60
2018-02-11T17:38:16.487Z,21.60
2018-02-11T17:40:44.010Z,19.03
2018-02-11T17:43:11.557Z,16.42
2018-02-11T17:45:39.077Z,18.93
2018-02-11T17:48:07.394Z,20.47
2018-02-11T17:50:34.930Z,20.00
2018-02-11T17:53:02.533Z,17.40
2018-02-11T17:55:30.112Z,16.33
2018-02-11T17:57:57.650Z,21.07
2018-02-11T18:00:25.178Z,22.63
2018-02-11T18:02:52.737Z,24.77
2018-02-11T18:05:20.255Z,17.80
2018-02-11T18:07:48.559Z,18.37
2018-02-11T18:10:16.083Z,16.70
2018-02-11T18:12:43.595Z,18.30
2018-02-11T18:15:11.887Z,21.80
2018-02-11T18:17:39.399Z,15.03
2018-02-11T18:20:07.707Z,23.33
2018-02-11T18:22:35.233Z,18.40
2018-02-11T18:25:03.545Z,15.30
2018-02-11T18:27:31.066Z,13.97
2018-02-11T18:29:58.627Z,18.50
2018-02-11T18:32:26.149Z,16.30
2018-02-11T18:34:53.688Z,17.60
2018-02-11T18:37:21.308Z,16.70
2018-02-11T18:39:48.872Z,15.07
2018-02-11T18:42:16.392Z,20.70
2018-02-11T18:44:43.972Z,15.73
2018-02-11T18:47:11.493Z,15.60
2018-02-11T18:49:39.024Z,17.87
2018-02-11T18:52:06.548Z,18.40
2018-02-11T18:54:34.852Z,16.83
2018-02-11T18:57:02.380Z,16.57
2018-02-11T18:59:30.214Z,16.00
2018-02-11T19:01:58.499Z,21.10
2018-02-11T19:04:26.025Z,18.57
2018-02-11T19:06:54.372Z,17.40
2018-02-11T19:09:22.653Z,17.70
2018-02-11T19:11:50.388Z,18.43
2018-02-11T19:14:18.712Z,20.67
2018-02-11T19:16:46.258Z,15.30
2018-02-11T19:19:13.787Z,16.75
2018-02-11T19:21:41.638Z,13.90
2018-02-11T19:24:09.199Z,14.80
2018-02-11T19:26:36.813Z,12.77
2018-02-11T19:29:05.813Z,12.43
2018-02-11T19:31:33.352Z,12.23
2018-02-11T19:34:00.864Z,16.63
2018-02-11T19:36:28.399Z,14.00
2018-02-11T19:38:56.193Z,16.20
2018-02-11T19:41:23.729Z,15.70
2018-02-11T19:43:51.277Z,12.80
2018-02-11T19:46:18.823Z,13.03
2018-02-11T19:48:46.381Z,11.60
2018-02-11T19:51:13.910Z,13.97
2018-02-11T19:53:41.449Z,18.07
2018-02-11T19:56:08.979Z,22.80
2018-02-11T19:58:36.516Z,15.80
2018-02-11T20:01:04.145Z,15.73
2018-02-11T20:03:31.743Z,14.60
2018-02-11T20:05:59.278Z,13.03
2018-02-11T20:08:26.807Z,16.35
2018-02-11T20:10:54.325Z,16.20
2018-02-11T20:13:22.624Z,15.57
2018-02-11T20:15:50.152Z,16.00
2018-02-11T20:18:17.698Z,16.47
2018-02-11T20:20:45.236Z,13.77
2018-02-11T20:23:12.884Z,15.23
2018-02-11T20:25:40.657Z,14.20
2018-02-11T20:28:09.821Z,17.80
2018-02-11T20:30:37.348Z,16.73
2018-02-11T20:33:04.858Z,12.50
2018-02-11T20:35:32.513Z,16.20
2018-02-11T20:38:00.046Z,14.50
2018-02-11T20:40:28.359Z,13.73
2018-02-11T20:42:55.871Z,14.47
2018-02-11T20:45:24.183Z,22.83
2018-02-11T20:47:51.890Z,13.55
2018-02-11T20:50:19.432Z,14.13
2018-02-11T20:52:47.721Z,16.43
2018-02-11T20:55:15.304Z,16.83
2018-02-11T20:57:42.833Z,14.17
2018-02-11T21:00:10.393Z,11.90
2018-02-11T21:02:37.962Z,13.70
2018-02-11T21:05:05.515Z,15.00
2018-02-11T21:07:34.114Z,13.25
2018-02-11T21:10:02.563Z,14.57
2018-02-11T21:12:30.890Z,14.60
2018-02-11T21:15:00.726Z,11.73
2018-02-11T21:17:28.276Z,19.57
2018-02-11T21:19:55.949Z,17.80
2018-02-11T21:22:23.489Z,17.98
2018-02-11T21:24:51.036Z,18.20
2018-02-11T21:27:18.570Z,18.55
2018-02-11T21:29:46.108Z,17.73
2018-02-11T21:32:13.978Z,24.10
2018-02-11T21:34:41.537Z,31.37
2018-02-11T21:37:09.260Z,14.10
2018-02-11T21:39:36.780Z,15.63
2018-02-11T21:42:05.161Z,14.93
2018-02-11T21:44:32.924Z,15.63
2018-02-11T21:47:02.017Z,19.63
2018-02-11T21:49:29.531Z,15.60
2018-02-11T21:51:57.062Z,18.47
2018-02-11T21:54:24.609Z,18.03
2018-02-11T21:56:52.149Z,17.63
2018-02-11T21:59:19.684Z,15.82
2018-02-11T22:01:47.963Z,14.97
2018-02-11T22:04:15.500Z,17.40
2018-02-11T22:06:43.031Z,16.67
2018-02-11T22:09:11.349Z,16.40
2018-02-11T22:11:38.877Z,18.48
2018-02-11T22:14:06.407Z,17.00
2018-02-11T22:16:35.647Z,16.35
2018-02-11T22:19:03.464Z,15.50
2018-02-11T22:21:31.026Z,15.20
2018-02-11T22:23:58.555Z,15.50
2018-02-11T22:26:26.112Z,23.03
2018-02-11T22:28:53.664Z,19.00
2018-02-11T22:31:21.185Z,17.60
2018-02-11T22:33:48.697Z,18.93
2018-02-11T22:36:16.240Z,16.80
2018-02-11T22:38:44.529Z,19.87
2018-02-11T22:41:12.081Z,16.27
2018-02-11T22:43:39.595Z,20.67
2018-02-11T22:46:07.180Z,26.63
2018-02-11T22:48:35.620Z,15.20
2018-02-11T22:51:04.052Z,17.70
2018-02-11T22:53:32.465Z,18.80
2018-02-11T22:56:00.000Z,21.00
2018-02-11T22:58:27.541Z,14.90
2018-02-11T23:00:55.078Z,12.87
2018-02-11T23:03:22.615Z,15.80
2018-02-11T23:05:50.143Z,14.13
2018-02-11T23:08:17.697Z,17.10
2018-02-11T23:10:45.239Z,18.37
2018-02-11T23:13:13.560Z,15.13
2018-02-11T23:15:41.119Z,18.37
2018-02-11T23:18:08.644Z,16.17
2018-02-11T23:20:37.810Z,22.77
2018-02-11T23:23:05.326Z,24.63
2018-02-11T23:25:32.903Z,15.50
2018-02-11T23:28:00.444Z,20.43
2018-02-11T23:30:27.972Z,16.77
2018-02-11T23:32:55.517Z,18.47
2018-02-11T23:35:23.080Z,20.07
2018-02-11T23:37:50.615Z,16.47
2018-02-11T23:40:18.149Z,18.90
2018-02-11T23:42:45.676Z,19.92
2018-02-11T23:45:13.270Z,20.20
2018-02-11T23:47:40.815Z,21.20
2018-02-11T23:50:08.338Z,19.70
2018-02-11T23:52:36.828Z,17.77
2018-02-11T23:55:04.449Z,19.53
2018-02-11T23:57:31.990Z,26.57
2018-02-11T23:59:59.502Z,17.93
